Time;durP1;ratioP1;P1;durP2;ratioP2;P2;SDS_P1;SDS_P2;PMS_P1;PMS_P2;Temp;Humidity;BMP_temperature;BMP_pressure;BME280_temperature;BME280_humidity;BME280_pressure;Samples;Min_cycle;Max_cycle;Signal;HPM_P1;HPM_P2
2021/12/25 00:01:49;;;;;;;9.80;5.82;;;10.10;79.10;;;;;;7375788;19;20364;-40
2021/12/25 00:04:18;;;;;;;6.55;5.80;;;10.00;79.60;;;;;;7370781;19;20530;-40
2021/12/25 00:06:48;;;;;;;7.22;5.13;;;10.00;79.60;;;;;;7370683;19;20148;-40
2021/12/25 00:09:17;;;;;;;8.40;5.53;;;10.00;79.40;;;;;;7377516;19;20136;-40
2021/12/25 00:11:50;;;;;;;5.50;4.57;;;10.00;79.30;;;;;;7365924;19;20281;-40
2021/12/25 00:14:21;;;;;;;7.22;4.65;;;10.00;79.40;;;;;;7369165;19;20994;-40
2021/12/25 00:16:53;;;;;;;7.40;5.32;;;9.90;80.90;;;;;;7358665;19;20135;-40
2021/12/25 00:19:22;;;;;;;6.85;4.97;;;9.90;81.40;;;;;;7377727;19;20139;-40
2021/12/25 00:21:52;;;;;;;5.07;4.00;;;9.60;81.00;;;;;;7376636;19;20163;-40
2021/12/25 00:24:22;;;;;;;7.13;5.28;;;9.90;81.30;;;;;;7381132;19;20131;-40
2021/12/25 00:26:59;;;;;;;9.60;4.65;;;9.80;81.40;;;;;;7375421;19;20654;-40
2021/12/25 00:29:47;;;;;;;5.72;4.28;;;9.80;81.60;;;;;;7374626;19;20617;-40
2021/12/25 00:32:39;;;;;;;5.70;5.00;;;9.80;81.60;;;;;;7373607;19;20147;-40
2021/12/25 00:35:09;;;;;;;6.97;5.72;;;9.80;81.70;;;;;;7372762;19;20677;-40
2021/12/25 00:37:39;;;;;;;5.82;5.20;;;9.70;81.80;;;;;;7379088;19;20606;-40
2021/12/25 00:40:10;;;;;;;9.95;5.60;;;9.70;82.00;;;;;;7371172;19;20197;-40
2021/12/25 00:42:42;;;;;;;13.80;6.45;;;9.70;82.20;;;;;;7379096;19;20195;-40
2021/12/25 00:45:12;;;;;;;7.30;5.38;;;9.70;82.20;;;;;;7370962;19;20613;-40
2021/12/25 00:47:42;;;;;;;7.13;6.32;;;9.80;81.90;;;;;;7376036;19;20128;-40
2021/12/25 00:50:13;;;;;;;7.25;5.88;;;10.10;80.80;;;;;;7372241;19;20135;-37
2021/12/25 00:52:42;;;;;;;7.85;5.03;;;9.80;81.80;;;;;;7373835;19;20135;-36
2021/12/25 00:55:13;;;;;;;7.20;5.07;;;9.80;81.70;;;;;;7378091;19;20135;-37
2021/12/25 00:57:47;;;;;;;6.68;5.20;;;9.80;81.40;;;;;;7379506;19;20606;-37
2021/12/25 01:00:18;;;;;;;6.95;5.00;;;9.80;81.20;;;;;;7371918;19;20138;-36
2021/12/25 01:02:49;;;;;;;5.63;4.32;;;9.90;81.10;;;;;;7376909;19;20127;-37
2021/12/25 01:05:20;;;;;;;7.97;4.72;;;9.80;81.00;;;;;;7374809;19;20586;-37
2021/12/25 01:07:49;;;;;;;5.55;4.30;;;9.80;81.60;;;;;;7374869;19;20150;-37
2021/12/25 01:10:24;;;;;;;6.15;4.57;;;9.80;81.60;;;;;;7369652;19;20165;-37
2021/12/25 01:13:04;;;;;;;5.53;4.43;;;9.70;81.70;;;;;;7373421;19;20131;-37
2021/12/25 01:15:45;;;;;;;5.40;3.97;;;9.70;81.70;;;;;;7369230;19;20540;-37
2021/12/25 01:29:51;;;;;;;7.72;5.15;;;9.90;81.90;;;;;;7373419;19;20172;-40
2021/12/25 01:38:53;;;;;;;9.35;6.30;;;9.90;82.50;;;;;;7371315;19;20514;-41
2021/12/25 01:50:15;;;;;;;7.70;5.90;;;9.60;84.60;;;;;;7372661;19;20131;-40
2021/12/25 01:52:45;;;;;;;7.82;5.25;;;9.70;84.60;;;;;;7373398;19;20134;-41
2021/12/25 01:55:22;;;;;;;10.07;5.68;;;9.80;84.10;;;;;;7370201;19;20592;-40
2021/12/25 01:57:52;;;;;;;8.82;5.72;;;9.80;84.20;;;;;;7375410;19;20131;-40
2021/12/25 02:00:25;;;;;;;8.07;5.80;;;9.70;84.90;;;;;;7370002;19;20138;-40
2021/12/25 02:02:57;;;;;;;10.52;6.85;;;9.80;84.50;;;;;;7376114;19;20146;-40
2021/12/25 02:05:28;;;;;;;12.75;6.82;;;9.90;84.40;;;;;;7366906;19;20171;-40
2021/12/25 02:07:57;;;;;;;9.77;7.63;;;9.90;84.10;;;;;;7375246;19;20218;-40
2021/12/25 02:10:27;;;;;;;9.50;6.63;;;9.80;84.50;;;;;;7367034;19;20858;-40
2021/12/25 02:12:57;;;;;;;13.18;7.90;;;9.90;84.60;;;;;;7374052;19;20469;-40
2021/12/25 02:15:28;;;;;;;8.00;6.00;;;9.80;84.80;;;;;;7361282;19;20128;-40
2021/12/25 02:18:13;;;;;;;8.25;5.70;;;9.70;84.90;;;;;;7369341;19;20282;-40
2021/12/25 02:21:10;;;;;;;6.80;4.88;;;9.70;85.40;;;;;;7372573;19;20157;-40
2021/12/25 02:23:39;;;;;;;7.88;6.05;;;9.60;85.20;;;;;;7366340;19;20643;-41
2021/12/25 02:26:10;;;;;;;9.18;5.35;;;9.60;85.90;;;;;;7374256;19;20135;-40
2021/12/25 02:28:42;;;;;;;9.25;5.70;;;9.60;85.70;;;;;;7372644;19;20143;-41
2021/12/25 02:31:14;;;;;;;9.00;6.05;;;9.60;85.70;;;;;;7373948;19;20128;-40
2021/12/25 02:33:43;;;;;;;8.05;5.95;;;9.60;85.60;;;;;;7374199;19;20127;-42
2021/12/25 02:36:17;;;;;;;7.80;6.03;;;9.60;85.80;;;;;;7371560;19;20194;-40
2021/12/25 02:38:49;;;;;;;10.55;7.05;;;9.60;85.90;;;;;;7369294;19;20603;-40
2021/12/25 02:41:20;;;;;;;11.00;7.18;;;9.60;85.60;;;;;;7369031;19;20123;-40
2021/12/25 02:43:51;;;;;;;9.07;6.75;;;9.70;85.60;;;;;;7375815;19;20127;-40
2021/12/25 02:46:33;;;;;;;6.38;5.38;;;9.70;85.40;;;;;;7370059;19;20123;-40
2021/12/25 02:49:03;;;;;;;8.30;5.53;;;9.80;85.30;;;;;;7375935;19;20124;-40
2021/12/25 02:51:35;;;;;;;7.38;5.47;;;9.80;85.50;;;;;;7371501;19;20124;-40
2021/12/25 02:54:05;;;;;;;8.48;5.95;;;9.90;84.90;;;;;;7364599;19;20644;-40
2021/12/25 02:56:34;;;;;;;6.78;5.30;;;9.90;85.10;;;;;;7366251;19;20750;-40
2021/12/25 02:59:04;;;;;;;6.53;5.50;;;9.90;85.70;;;;;;7371269;19;20137;-40
2021/12/25 03:01:33;;;;;;;7.43;5.25;;;9.90;85.80;;;;;;7373863;19;20139;-37
2021/12/25 03:04:03;;;;;;;5.75;4.65;;;10.00;84.20;;;;;;7374125;19;20204;-37
2021/12/25 03:06:37;;;;;;;6.95;4.85;;;9.90;86.00;;;;;;7367257;19;20127;-37
2021/12/25 03:09:08;;;;;;;7.35;5.63;;;9.80;85.90;;;;;;7366808;19;20705;-37
2021/12/25 03:11:38;;;;;;;7.43;5.70;;;9.90;85.80;;;;;;7359373;19;20147;-37
2021/12/25 03:14:30;;;;;;;8.05;5.70;;;9.80;85.50;;;;;;7370655;19;20458;-37
2021/12/25 03:17:02;;;;;;;7.60;5.57;;;9.70;86.30;;;;;;7368084;19;20131;-37
2021/12/25 03:19:35;;;;;;;8.25;5.70;;;9.70;86.10;;;;;;7372209;19;20131;-37
2021/12/25 03:22:07;;;;;;;6.60;5.78;;;9.70;86.20;;;;;;7373051;19;20135;-37
2021/12/25 03:24:37;;;;;;;6.00;3.72;;;9.80;86.00;;;;;;7372124;19;20170;-37
2021/12/25 03:27:07;;;;;;;6.30;4.10;;;9.80;85.80;;;;;;7373243;19;20127;-37
2021/12/25 03:29:40;;;;;;;7.05;5.15;;;9.80;86.10;;;;;;7368400;19;20127;-40
2021/12/25 03:32:11;;;;;;;7.75;5.82;;;9.80;85.80;;;;;;7369638;19;20479;-40
2021/12/25 03:34:41;;;;;;;7.50;5.38;;;9.90;85.80;;;;;;7371115;19;20128;-40
2021/12/25 03:37:13;;;;;;;5.38;4.80;;;10.00;84.30;;;;;;7370646;19;20224;-40
2021/12/25 03:39:42;;;;;;;7.85;4.90;;;10.00;83.90;;;;;;7369371;19;20759;-40
2021/12/25 03:42:12;;;;;;;6.47;4.72;;;9.90;85.20;;;;;;7372337;19;20127;-40
2021/12/25 03:44:41;;;;;;;5.10;4.20;;;9.90;85.50;;;;;;7370238;19;20678;-40
2021/12/25 03:47:24;;;;;;;5.15;4.07;;;10.00;84.30;;;;;;7371060;19;20161;-40
2021/12/25 03:58:09;;;;;;;3.30;2.92;;;9.80;89.40;;;;;;7370768;19;20142;-40
2021/12/25 04:00:41;;;;;;;4.85;2.47;;;9.70;89.50;;;;;;7366695;19;20128;-40
2021/12/25 04:03:19;;;;;;;2.30;1.92;;;9.60;88.20;;;;;;7370672;19;20690;-40
2021/12/25 04:05:49;;;;;;;3.63;2.13;;;9.00;87.70;;;;;;7366595;19;20139;-40
2021/12/25 04:08:30;;;;;;;3.17;2.20;;;9.80;87.80;;;;;;7362254;19;20392;-42
2021/12/25 04:11:11;;;;;;;2.50;2.30;;;9.70;87.70;;;;;;7364126;19;20155;-40
2021/12/25 04:13:41;;;;;;;3.90;2.38;;;9.70;87.60;;;;;;7370256;19;20140;-40
2021/12/25 04:16:10;;;;;;;3.22;1.98;;;9.70;87.50;;;;;;7369863;19;20139;-40
2021/12/25 04:18:40;;;;;;;2.97;2.35;;;9.70;87.10;;;;;;7373770;19;20131;-40
2021/12/25 04:21:09;;;;;;;2.25;2.00;;;9.70;87.70;;;;;;7364661;19;20127;-40
2021/12/25 04:23:43;;;;;;;3.95;1.65;;;9.70;87.80;;;;;;7369225;19;20131;-40
2021/12/25 04:26:13;;;;;;;2.72;1.95;;;9.80;87.60;;;;;;7370958;19;20128;-40
2021/12/25 04:28:48;;;;;;;2.13;1.73;;;9.80;87.30;;;;;;7367740;19;20600;-40
2021/12/25 05:01:50;;;;;;;2.50;1.25;;;9.70;86.10;;;;;;7364711;19;20139;-40
2021/12/25 05:04:50;;;;;;;1.05;0.90;;;9.60;86.30;;;;;;7371610;19;20840;-40
2021/12/25 05:07:38;;;;;;;0.98;0.90;;;9.50;87.30;;;;;;7376390;19;20144;-40
2021/12/25 05:10:09;;;;;;;3.08;1.55;;;9.50;87.30;;;;;;7369548;19;20759;-40
2021/12/25 05:12:43;;;;;;;2.60;1.55;;;9.40;87.50;;;;;;7376581;19;20637;-40
2021/12/25 05:15:13;;;;;;;2.70;2.08;;;9.40;87.90;;;;;;7372343;19;20131;-40
2021/12/25 05:17:43;;;;;;;3.20;1.20;;;9.50;87.70;;;;;;7373108;19;20134;-40
2021/12/25 05:20:13;;;;;;;2.00;1.65;;;9.50;87.90;;;;;;7370946;19;20132;-40
2021/12/25 05:22:43;;;;;;;2.22;1.80;;;9.50;87.50;;;;;;7377289;19;20135;-40
2021/12/25 05:25:12;;;;;;;2.95;1.80;;;9.40;87.40;;;;;;7368872;19;20128;-40
2021/12/25 05:27:54;;;;;;;3.22;2.10;;;9.50;87.70;;;;;;7373083;19;20633;-40
2021/12/25 05:30:23;;;;;;;2.30;1.80;;;9.50;87.60;;;;;;7372917;19;20128;-41
2021/12/25 05:33:12;;;;;;;3.08;2.03;;;9.50;87.50;;;;;;7377621;19;20123;-40
2021/12/25 05:36:00;;;;;;;3.55;2.08;;;9.40;87.20;;;;;;7363700;19;20163;-42
2021/12/25 05:38:46;;;;;;;2.95;1.83;;;9.40;87.70;;;;;;7374288;19;20139;-40
2021/12/25 05:41:37;;;;;;;4.72;1.60;;;9.40;87.40;;;;;;7372525;19;20607;-40
2021/12/25 05:44:16;;;;;;;2.25;2.03;;;9.40;87.10;;;;;;7373905;19;20134;-41
2021/12/25 05:46:52;;;;;;;3.83;2.20;;;9.40;86.80;;;;;;7372638;19;20127;-40
2021/12/25 05:49:24;;;;;;;3.15;2.60;;;9.40;87.00;;;;;;7372552;19;20132;-40
2021/12/25 05:52:17;;;;;;;3.58;2.75;;;9.40;87.00;;;;;;7369254;19;20155;-40
2021/12/25 05:55:15;;;;;;;3.85;2.83;;;9.50;85.70;;;;;;7369150;19;20128;-41
2021/12/25 05:58:07;;;;;;;3.78;2.75;;;9.60;86.10;;;;;;7372708;19;20140;-40
2021/12/25 06:00:41;;;;;;;3.53;3.22;;;9.60;85.90;;;;;;7371514;19;20131;-40
2021/12/25 06:03:12;;;;;;;4.70;3.33;;;9.60;85.60;;;;;;7373127;19;20128;-41
2021/12/25 06:05:43;;;;;;;4.30;2.90;;;9.70;85.90;;;;;;7367353;19;20143;-40
2021/12/25 06:08:15;;;;;;;4.35;3.38;;;9.70;85.90;;;;;;7368876;19;20135;-40
2021/12/25 06:10:46;;;;;;;3.95;3.40;;;9.70;86.10;;;;;;7351060;19;20697;-36
2021/12/25 06:13:19;;;;;;;5.70;3.55;;;9.70;85.80;;;;;;7372022;19;20142;-37
2021/12/25 06:15:53;;;;;;;5.32;4.10;;;9.70;85.60;;;;;;7368243;19;20158;-36
2021/12/25 06:18:41;;;;;;;4.55;3.20;;;9.70;85.70;;;;;;7372836;19;20139;-37
2021/12/25 06:21:18;;;;;;;3.90;3.50;;;9.70;86.10;;;;;;7363797;19;20124;-37
2021/12/25 06:24:14;;;;;;;5.63;3.70;;;9.80;86.00;;;;;;7368885;19;20532;-36
2021/12/25 06:27:04;;;;;;;5.60;3.95;;;9.80;86.00;;;;;;7367593;19;20143;-36
2021/12/25 06:30:02;;;;;;;5.78;4.28;;;9.80;85.90;;;;;;7368932;19;20135;-37
2021/12/25 06:32:49;;;;;;;6.13;4.00;;;9.70;85.40;;;;;;7368982;19;20132;-37
2021/12/25 06:35:37;;;;;;;8.40;5.15;;;9.80;85.10;;;;;;7361871;19;20150;-37
2021/12/25 06:38:42;;;;;;;5.82;4.18;;;9.80;85.10;;;;;;7369062;19;20151;-36
2021/12/25 06:41:16;;;;;;;7.18;4.85;;;9.90;84.70;;;;;;7368344;19;20452;-36
2021/12/25 06:43:47;;;;;;;7.45;4.47;;;9.90;85.00;;;;;;7371162;19;20190;-37
2021/12/25 06:46:26;;;;;;;5.10;3.97;;;9.90;84.90;;;;;;7367627;19;20709;-37
2021/12/25 06:48:59;;;;;;;5.78;4.22;;;9.90;84.80;;;;;;7371740;19;20123;-37
2021/12/25 06:51:48;;;;;;;5.97;4.28;;;10.00;83.50;;;;;;7364481;19;21004;-37
2021/12/25 06:54:50;;;;;;;5.00;3.60;;;10.00;83.10;;;;;;7360931;19;20158;-37
2021/12/25 06:57:25;;;;;;;6.30;4.28;;;9.90;84.20;;;;;;7365115;19;20211;-37
2021/12/25 06:59:55;;;;;;;5.00;4.10;;;9.90;84.20;;;;;;7372112;19;20656;-37
2021/12/25 07:02:25;;;;;;;5.97;3.90;;;9.90;84.20;;;;;;7372874;19;20128;-37
2021/12/25 07:05:24;;;;;;;4.80;4.13;;;9.90;84.40;;;;;;7371383;19;20142;-37
2021/12/25 07:08:27;;;;;;;3.97;3.38;;;9.90;84.20;;;;;;7372887;19;21330;-37
2021/12/25 07:11:15;;;;;;;7.93;4.00;;;9.90;84.20;;;;;;7371233;19;20160;-36
2021/12/25 07:14:09;;;;;;;5.07;4.25;;;9.90;84.40;;;;;;7370605;19;20131;-37
2021/12/25 07:16:51;;;;;;;6.13;4.10;;;9.90;84.40;;;;;;7372776;19;20124;-37
2021/12/25 07:19:43;;;;;;;4.40;3.63;;;10.80;84.00;;;;;;7371552;19;20392;-37
2021/12/25 07:22:36;;;;;;;6.00;3.20;;;10.00;83.20;;;;;;7373477;19;20139;-37
2021/12/25 07:25:18;;;;;;;4.25;3.40;;;10.40;83.40;;;;;;7369468;19;20131;-37
2021/12/25 07:28:01;;;;;;;4.68;3.50;;;10.10;83.10;;;;;;7371856;19;20147;-37
2021/12/25 07:30:30;;;;;;;5.32;3.25;;;10.10;83.00;;;;;;7370339;19;20636;-37
2021/12/25 07:33:00;;;;;;;4.78;3.17;;;10.80;83.60;;;;;;7374013;19;20169;-37
2021/12/25 07:35:30;;;;;;;4.13;3.77;;;10.20;83.20;;;;;;7372355;19;20151;-37
2021/12/25 07:38:02;;;;;;;4.00;3.45;;;10.20;83.00;;;;;;7363393;19;20376;-37
2021/12/25 07:40:32;;;;;;;5.43;3.80;;;10.20;82.90;;;;;;7364796;19;20123;-37
2021/12/25 07:43:01;;;;;;;4.50;3.50;;;10.20;83.00;;;;;;7366861;19;20155;-37
2021/12/25 07:45:51;;;;;;;4.13;3.50;;;10.20;82.90;;;;;;7363796;19;20372;-37
2021/12/25 07:48:24;;;;;;;4.07;3.43;;;10.30;83.10;;;;;;7366788;19;20733;-37
2021/12/25 07:50:54;;;;;;;5.47;3.33;;;10.30;83.00;;;;;;7367949;19;20784;-37
2021/12/25 07:53:27;;;;;;;5.13;3.70;;;10.30;83.20;;;;;;7366122;19;20419;-36
2021/12/25 07:55:56;;;;;;;3.40;2.70;;;10.30;83.40;;;;;;7359046;19;20371;-36
2021/12/25 07:58:26;;;;;;;4.75;3.22;;;10.30;83.60;;;;;;7364807;19;20933;-37
2021/12/25 08:00:57;;;;;;;13.73;4.18;;;10.20;83.80;;;;;;7355623;19;20132;-37
2021/12/25 08:03:29;;;;;;;5.10;3.40;;;10.20;83.90;;;;;;7369568;19;20609;-37
2021/12/25 08:05:58;;;;;;;8.30;4.40;;;10.30;83.90;;;;;;7364792;19;20404;-37
2021/12/25 08:08:33;;;;;;;4.93;3.97;;;10.30;84.10;;;;;;7369180;19;20897;-37
2021/12/25 08:11:02;;;;;;;4.40;3.63;;;10.30;84.40;;;;;;7353903;19;20424;-36
2021/12/25 08:13:32;;;;;;;5.05;3.78;;;10.30;84.00;;;;;;7361170;19;20142;-37
2021/12/25 08:16:01;;;;;;;6.27;3.47;;;10.30;84.00;;;;;;7363111;19;20732;-37
2021/12/25 08:18:31;;;;;;;4.78;3.25;;;10.20;84.30;;;;;;7363964;19;20809;-37
2021/12/25 08:21:19;;;;;;;3.50;3.07;;;10.20;84.30;;;;;;7370566;19;20482;-40
2021/12/25 08:24:10;;;;;;;3.33;2.80;;;10.20;84.30;;;;;;7370746;19;20998;-40
2021/12/25 08:27:04;;;;;;;3.50;3.20;;;10.20;84.70;;;;;;7363499;19;20404;-41
2021/12/25 08:29:57;;;;;;;4.10;3.10;;;10.20;84.50;;;;;;7361765;19;20131;-41
2021/12/25 08:32:59;;;;;;;3.95;3.47;;;10.30;84.80;;;;;;7371296;19;20261;-40
2021/12/25 08:35:47;;;;;;;3.03;2.70;;;10.30;84.40;;;;;;7376780;19;20795;-40
2021/12/25 08:38:16;;;;;;;4.40;3.10;;;10.20;84.20;;;;;;7374071;19;20380;-40
2021/12/25 08:40:53;;;;;;;3.55;2.83;;;10.20;84.50;;;;;;7370200;19;20915;-40
2021/12/25 08:43:24;;;;;;;3.55;3.25;;;10.20;84.40;;;;;;7366148;19;20135;-40
2021/12/25 08:46:11;;;;;;;5.20;3.35;;;10.30;84.20;;;;;;7376897;19;20395;-40
2021/12/25 08:48:43;;;;;;;5.93;4.20;;;10.40;84.20;;;;;;7375991;19;20140;-40
2021/12/25 08:51:13;;;;;;;5.15;3.30;;;10.40;83.60;;;;;;7375511;19;20127;-40
2021/12/25 08:53:42;;;;;;;4.57;3.67;;;10.40;84.20;;;;;;7372359;19;20500;-40
2021/12/25 08:56:14;;;;;;;5.28;4.15;;;10.40;83.60;;;;;;7376514;19;20127;-40
2021/12/25 08:58:44;;;;;;;4.00;3.50;;;10.50;83.60;;;;;;7363126;19;20131;-40
2021/12/25 09:01:15;;;;;;;4.13;3.30;;;10.60;83.50;;;;;;7372558;19;20369;-40
2021/12/25 09:03:44;;;;;;;4.60;3.60;;;10.60;83.60;;;;;;7376682;19;20921;-40
2021/12/25 09:06:14;;;;;;;4.57;3.40;;;10.60;83.20;;;;;;7369870;19;20939;-40
2021/12/25 09:08:43;;;;;;;4.43;3.57;;;10.60;83.50;;;;;;7366712;19;20372;-40
2021/12/25 09:11:20;;;;;;;4.20;3.80;;;10.60;82.80;;;;;;7368765;19;20919;-40
2021/12/25 09:13:50;;;;;;;8.67;4.03;;;10.60;82.80;;;;;;7376719;19;20368;-40
2021/12/25 09:16:19;;;;;;;4.47;3.10;;;10.60;82.50;;;;;;7372432;19;20763;-40
2021/12/25 09:18:49;;;;;;;5.30;3.20;;;10.60;82.50;;;;;;7374483;19;20957;-40
2021/12/25 09:21:19;;;;;;;4.07;2.80;;;10.60;82.50;;;;;;7377983;19;21123;-40
2021/12/25 09:23:49;;;;;;;3.87;2.90;;;10.60;82.50;;;;;;7374442;19;20376;-40
2021/12/25 09:26:21;;;;;;;3.97;2.90;;;10.60;82.60;;;;;;7372597;19;20403;-40
2021/12/25 09:28:51;;;;;;;4.03;2.80;;;10.50;82.40;;;;;;7376407;19;20481;-40
2021/12/25 09:31:21;;;;;;;4.55;3.25;;;10.50;82.10;;;;;;7374322;19;20380;-40
2021/12/25 09:33:52;;;;;;;5.00;3.10;;;10.50;82.50;;;;;;7376611;19;20139;-40
2021/12/25 09:36:21;;;;;;;6.10;3.20;;;10.60;82.40;;;;;;7372810;19;20435;-40
2021/12/25 09:38:53;;;;;;;6.50;3.20;;;10.60;82.50;;;;;;7371635;19;20402;-39
2021/12/25 09:41:25;;;;;;;3.60;2.90;;;10.60;82.30;;;;;;7368276;19;20372;-40
2021/12/25 09:43:55;;;;;;;4.78;3.10;;;10.70;82.20;;;;;;7371218;19;20739;-40
2021/12/25 09:46:24;;;;;;;3.00;2.30;;;10.70;82.30;;;;;;7372157;19;20606;-40
2021/12/25 09:48:54;;;;;;;4.37;3.13;;;10.70;80.90;;;;;;7375198;19;20395;-40
2021/12/25 09:51:24;;;;;;;5.00;2.23;;;10.70;81.80;;;;;;7372427;19;20384;-36
2021/12/25 09:53:59;;;;;;;3.57;2.67;;;10.80;81.60;;;;;;7363636;19;21144;-36
2021/12/25 09:56:34;;;;;;;3.03;2.10;;;10.90;81.00;;;;;;7373844;19;20929;-36
2021/12/25 09:59:04;;;;;;;4.00;2.90;;;11.00;81.00;;;;;;7375901;19;20736;-36
2021/12/25 10:01:38;;;;;;;4.47;2.13;;;11.00;80.90;;;;;;7375194;19;20787;-36
2021/12/25 10:04:09;;;;;;;2.67;1.90;;;11.00;79.80;;;;;;7372284;19;21239;-36
2021/12/25 10:06:41;;;;;;;2.90;1.80;;;11.00;79.80;;;;;;7364666;19;20369;-36
2021/12/25 10:09:16;;;;;;;2.43;1.83;;;11.00;79.40;;;;;;7369792;19;20380;-36
2021/12/25 10:12:07;;;;;;;4.60;2.30;;;11.00;80.10;;;;;;7361276;19;20785;-36
2021/12/25 10:14:38;;;;;;;3.00;1.97;;;11.10;80.00;;;;;;7374520;19;20376;-36
2021/12/25 10:17:27;;;;;;;3.97;2.30;;;11.20;79.70;;;;;;7374630;19;20382;-36
2021/12/25 10:20:11;;;;;;;3.63;2.70;;;11.20;79.20;;;;;;7372908;19;20724;-36
2021/12/25 10:22:58;;;;;;;3.33;2.43;;;11.30;79.30;;;;;;7370532;19;20369;-36
2021/12/25 10:25:32;;;;;;;2.37;1.80;;;11.50;79.60;;;;;;7368949;19;20380;-37
2021/12/25 10:28:07;;;;;;;2.17;1.97;;;11.50;80.10;;;;;;7377505;19;20484;-37
2021/12/25 10:30:47;;;;;;;2.23;1.57;;;11.50;78.60;;;;;;7367447;19;20771;-36
2021/12/25 10:33:29;;;;;;;2.13;1.57;;;11.60;78.90;;;;;;7371976;19;20364;-36
2021/12/25 10:36:04;;;;;;;5.40;1.60;;;11.50;78.80;;;;;;7365626;19;20384;-36
2021/12/25 10:38:34;;;;;;;3.80;2.13;;;11.50;78.30;;;;;;7372532;19;20367;-36
2021/12/25 10:41:20;;;;;;;1.53;1.40;;;11.60;78.10;;;;;;7369737;19;20391;-36
2021/12/25 10:44:11;;;;;;;1.67;1.20;;;11.60;78.00;;;;;;7370326;19;20356;-36
2021/12/25 10:46:52;;;;;;;1.30;1.20;;;11.50;77.10;;;;;;7369668;19;20368;-37
2021/12/25 10:49:23;;;;;;;1.97;1.70;;;11.60;75.90;;;;;;7365818;19;20371;-37
2021/12/25 10:51:53;;;;;;;3.00;1.50;;;11.50;76.10;;;;;;7370899;19;20921;-40
2021/12/25 10:54:37;;;;;;;1.40;1.20;;;11.50;76.90;;;;;;7372614;19;20375;-40
2021/12/25 10:57:07;;;;;;;1.70;1.27;;;11.50;77.00;;;;;;7372542;19;20368;-40
2021/12/25 10:59:48;;;;;;;2.70;1.40;;;11.60;76.70;;;;;;7370438;19;20385;-40
2021/12/25 11:02:34;;;;;;;2.77;1.93;;;11.70;77.10;;;;;;7373372;19;20378;-40
2021/12/25 11:05:23;;;;;;;1.40;1.23;;;11.80;77.80;;;;;;7365561;19;24125;-41
2021/12/25 11:08:06;;;;;;;1.57;1.37;;;12.00;77.60;;;;;;7372712;19;20372;-40
2021/12/25 11:10:44;;;;;;;1.37;1.07;;;12.20;76.00;;;;;;7370247;19;21850;-40
2021/12/25 11:13:24;;;;;;;1.70;1.23;;;12.30;74.60;;;;;;7349876;19;20780;-40
2021/12/25 11:16:03;;;;;;;1.60;1.50;;;12.40;74.70;;;;;;7339233;19;20368;-40
2021/12/25 11:18:34;;;;;;;1.60;1.10;;;12.40;74.30;;;;;;7352816;19;20356;-39
2021/12/25 11:21:11;;;;;;;0.87;0.87;;;12.50;73.70;;;;;;7365598;19;20493;-39
2021/12/25 11:23:41;;;;;;;0.70;0.70;;;12.60;72.80;;;;;;7371486;19;21164;-39
2021/12/25 11:26:13;;;;;;;1.30;1.20;;;12.60;72.60;;;;;;7373299;19;20379;-39
2021/12/25 11:28:44;;;;;;;1.00;0.87;;;12.40;73.60;;;;;;7371251;19;20379;-39
2021/12/25 11:31:16;;;;;;;1.17;0.90;;;12.60;73.50;;;;;;7367376;19;20744;-39
2021/12/25 11:33:46;;;;;;;0.80;0.73;;;12.80;73.30;;;;;;7365718;19;21583;-39
2021/12/25 11:36:16;;;;;;;1.73;1.20;;;13.00;72.60;;;;;;7347143;19;20400;-39
2021/12/25 11:38:46;;;;;;;1.40;1.10;;;13.10;71.10;;;;;;7364837;19;20452;-41
2021/12/25 11:41:16;;;;;;;1.30;1.10;;;13.10;70.10;;;;;;7368298;19;20655;-42
2021/12/25 11:43:47;;;;;;;1.87;1.07;;;13.00;70.40;;;;;;7370347;19;21033;-41
2021/12/25 11:46:19;;;;;;;2.00;1.33;;;13.00;71.10;;;;;;7369037;19;21084;-40
2021/12/25 11:49:07;;;;;;;1.83;1.30;;;12.90;71.80;;;;;;7371068;19;20167;-40
2021/12/25 11:51:40;;;;;;;1.50;1.00;;;12.90;72.20;;;;;;7366304;19;21186;-40
2021/12/25 11:54:42;;;;;;;1.50;1.40;;;12.80;73.20;;;;;;7378945;19;20375;-40
2021/12/25 11:57:34;;;;;;;3.10;1.30;;;12.70;72.90;;;;;;7371203;19;20906;-40
2021/12/25 12:00:04;;;;;;;1.90;1.23;;;12.60;72.80;;;;;;7375328;19;20380;-40
2021/12/25 12:02:46;;;;;;;1.40;1.17;;;12.50;71.60;;;;;;7378797;19;20407;-40
2021/12/25 12:05:22;;;;;;;2.00;1.80;;;12.40;72.20;;;;;;7377208;19;20838;-40
2021/12/25 12:08:07;;;;;;;2.73;1.40;;;12.40;73.30;;;;;;7374860;19;21341;-41
2021/12/25 12:11:00;;;;;;;1.03;0.90;;;12.30;74.70;;;;;;7369099;19;20432;-40
2021/12/25 12:13:48;;;;;;;1.53;0.87;;;12.30;72.70;;;;;;7381299;19;20400;-40
2021/12/25 12:16:51;;;;;;;1.23;0.90;;;12.30;71.80;;;;;;7374066;19;20399;-40
2021/12/25 12:19:52;;;;;;;2.70;1.10;;;12.20;71.80;;;;;;7379003;19;20396;-40
2021/12/25 12:22:46;;;;;;;1.37;1.10;;;12.20;72.30;;;;;;7367185;19;20459;-39
2021/12/25 12:25:26;;;;;;;1.10;1.00;;;12.10;73.70;;;;;;7374329;19;20372;-40
2021/12/25 12:28:01;;;;;;;1.03;0.90;;;12.10;73.50;;;;;;7370444;19;20363;-40
2021/12/25 12:30:50;;;;;;;1.63;1.30;;;12.00;73.50;;;;;;7375649;19;20368;-36
2021/12/25 12:33:38;;;;;;;1.27;1.17;;;12.00;73.90;;;;;;7373537;19;20372;-36
2021/12/25 12:36:33;;;;;;;2.00;1.00;;;12.00;74.50;;;;;;7370990;19;20918;-36
2021/12/25 12:39:18;;;;;;;2.13;1.30;;;11.90;74.20;;;;;;7376511;19;20391;-36
2021/12/25 12:41:56;;;;;;;1.17;1.00;;;11.90;73.70;;;;;;7364189;19;20372;-36
2021/12/25 12:44:33;;;;;;;2.10;1.20;;;11.90;73.20;;;;;;7374454;19;20393;-36
2021/12/25 12:47:09;;;;;;;1.97;1.00;;;11.90;73.60;;;;;;7378648;19;20379;-36
2021/12/25 12:49:57;;;;;;;1.50;1.07;;;11.80;73.40;;;;;;7376379;19;20763;-36
2021/12/25 12:52:35;;;;;;;1.37;1.20;;;11.80;73.10;;;;;;7372619;19;20375;-36
2021/12/25 12:55:08;;;;;;;1.70;1.50;;;11.80;73.70;;;;;;7378447;19;20416;-36
2021/12/25 12:57:40;;;;;;;1.20;1.10;;;11.80;74.40;;;;;;7365815;19;20521;-36
2021/12/25 13:00:18;;;;;;;1.50;1.20;;;11.70;74.80;;;;;;7372644;19;20963;-39
2021/12/25 13:02:50;;;;;;;1.33;1.10;;;11.70;75.70;;;;;;7372339;19;20447;-40
2021/12/25 13:05:22;;;;;;;1.80;1.27;;;11.70;75.30;;;;;;7365085;19;20392;-40
2021/12/25 13:07:56;;;;;;;3.23;1.20;;;11.70;75.50;;;;;;7360243;19;22178;-40
2021/12/25 13:10:35;;;;;;;1.10;1.03;;;11.70;76.20;;;;;;7368323;19;20431;-40
2021/12/25 13:13:14;;;;;;;1.47;1.27;;;11.70;76.00;;;;;;7377002;19;20375;-40
2021/12/25 13:15:45;;;;;;;1.67;1.57;;;11.60;76.00;;;;;;7373899;19;20375;-40
2021/12/25 13:18:16;;;;;;;2.20;1.40;;;11.60;76.00;;;;;;7350432;19;20546;-40
2021/12/25 13:20:47;;;;;;;1.80;1.40;;;11.60;76.20;;;;;;7370221;19;21201;-40
2021/12/25 13:23:23;;;;;;;1.27;1.10;;;11.70;76.70;;;;;;7367152;19;20931;-40
2021/12/25 13:25:56;;;;;;;1.60;1.50;;;11.70;76.60;;;;;;7374288;19;20428;-40
2021/12/25 13:28:27;;;;;;;2.13;1.60;;;11.70;76.70;;;;;;7370223;19;20898;-40
2021/12/25 13:31:00;;;;;;;3.00;1.77;;;11.70;76.70;;;;;;7370926;19;20408;-36
2021/12/25 13:33:32;;;;;;;2.53;1.90;;;11.70;76.30;;;;;;7363489;19;20380;-36
2021/12/25 13:36:07;;;;;;;1.90;1.53;;;11.70;75.70;;;;;;7367876;19;20395;-37
2021/12/25 13:38:52;;;;;;;3.70;2.10;;;11.60;76.00;;;;;;7368402;19;20391;-36
2021/12/25 13:41:34;;;;;;;3.10;1.90;;;11.60;76.70;;;;;;7372481;19;20821;-36
2021/12/25 13:44:13;;;;;;;2.00;1.80;;;11.50;77.10;;;;;;7372753;19;20375;-37
2021/12/25 13:46:46;;;;;;;3.20;2.30;;;11.40;78.00;;;;;;7370524;19;20380;-36
2021/12/25 13:49:30;;;;;;;3.00;2.00;;;11.50;78.70;;;;;;7365040;19;20368;-36
2021/12/25 13:52:03;;;;;;;2.60;1.80;;;11.30;79.00;;;;;;7367755;19;20352;-36
2021/12/25 13:54:36;;;;;;;3.60;1.73;;;11.30;79.70;;;;;;7366540;19;20372;-36
2021/12/25 13:57:06;;;;;;;3.03;2.00;;;11.20;79.50;;;;;;7366432;19;20364;-36
2021/12/25 13:59:37;;;;;;;3.27;2.40;;;11.20;79.80;;;;;;7368243;19;22061;-40
2021/12/25 14:02:09;;;;;;;2.50;1.90;;;11.20;79.70;;;;;;7374087;19;20380;-40
2021/12/25 14:04:42;;;;;;;2.10;1.73;;;11.30;79.90;;;;;;7361715;19;20373;-40
2021/12/25 14:07:13;;;;;;;3.07;2.40;;;11.20;80.00;;;;;;7363749;19;20360;-40
2021/12/25 14:09:55;;;;;;;3.03;2.37;;;11.20;80.00;;;;;;7359205;19;20371;-40
2021/12/25 14:12:25;;;;;;;3.43;2.43;;;11.20;79.80;;;;;;7361918;19;20364;-40
2021/12/25 14:14:56;;;;;;;2.87;2.57;;;11.20;79.60;;;;;;7368548;19;20408;-42
2021/12/25 14:17:27;;;;;;;3.67;2.80;;;11.20;79.20;;;;;;7364472;19;22010;-39
2021/12/25 14:20:11;;;;;;;3.83;2.40;;;11.20;79.40;;;;;;7366217;19;20387;-41
2021/12/25 14:22:41;;;;;;;3.97;2.97;;;11.20;79.90;;;;;;7371864;19;20379;-40
2021/12/25 14:25:24;;;;;;;4.23;2.67;;;11.20;80.00;;;;;;7371068;19;20384;-40
2021/12/25 14:28:05;;;;;;;3.90;2.97;;;11.20;80.20;;;;;;7370880;19;20376;-40
2021/12/25 14:30:39;;;;;;;3.43;2.77;;;11.20;80.10;;;;;;7371573;19;20413;-37
2021/12/25 14:33:18;;;;;;;3.33;2.93;;;11.10;80.80;;;;;;7368592;19;20416;-37
2021/12/25 14:35:49;;;;;;;5.67;3.97;;;11.10;80.90;;;;;;7370352;19;20391;-36
2021/12/25 14:38:19;;;;;;;5.30;3.20;;;11.10;80.90;;;;;;7372272;19;20361;-36
2021/12/25 14:40:54;;;;;;;5.00;3.70;;;11.00;80.90;;;;;;7373318;19;20375;-36
2021/12/25 14:43:31;;;;;;;3.77;3.37;;;11.00;80.80;;;;;;7368493;19;20127;-37